createdAt,value
2022-08-17T00:00:34.834Z,8.70
2022-08-17T00:03:14.419Z,9.40
2022-08-17T00:05:42.691Z,8.90
2022-08-17T00:08:11.706Z,9.10
2022-08-17T00:10:39.387Z,9.40
2022-08-17T00:13:11.517Z,9.30
2022-08-17T00:15:39.227Z,9.00
2022-08-17T00:19:02.170Z,8.90
2022-08-17T00:20:55.916Z,8.80
2022-08-17T00:23:24.230Z,9.60
2022-08-17T00:25:52.545Z,9.40
2022-08-17T00:28:21.013Z,9.50
2022-08-17T00:30:52.978Z,9.20
2022-08-17T00:33:23.750Z,9.10
2022-08-17T00:35:52.382Z,9.20
2022-08-17T00:38:20.563Z,9.10
2022-08-17T00:40:55.951Z,8.80
2022-08-17T00:43:29.370Z,9.50
2022-08-17T00:45:58.344Z,8.90
2022-08-17T00:48:29.224Z,9.40
2022-08-17T00:50:59.343Z,9.50
2022-08-17T00:53:29.170Z,9.20
2022-08-17T00:55:59.246Z,9.70
2022-08-17T00:58:30.436Z,10.10
2022-08-17T01:01:05.646Z,9.60
2022-08-17T01:03:34.789Z,9.60
2022-08-17T01:06:03.047Z,9.10
2022-08-17T01:08:31.532Z,9.30
2022-08-17T01:11:05.461Z,9.10
2022-08-17T01:13:40.985Z,9.60
2022-08-17T01:16:21.847Z,9.70
2022-08-17T01:18:50.859Z,9.40
2022-08-17T01:21:22.718Z,9.80
2022-08-17T01:23:50.647Z,9.80
2022-08-17T01:26:19.389Z,9.00
2022-08-17T01:28:53.542Z,10.10
2022-08-17T01:31:24.535Z,9.40
2022-08-17T01:33:52.412Z,9.70
2022-08-17T01:36:20.553Z,10.10
2022-08-17T01:38:48.379Z,10.00
2022-08-17T01:41:16.989Z,9.80
2022-08-17T01:43:47.644Z,9.50
2022-08-17T01:46:21.408Z,9.50
2022-08-17T01:48:51.397Z,9.50
2022-08-17T01:51:20.244Z,9.20
2022-08-17T01:53:49.703Z,9.60
2022-08-17T01:56:19.662Z,10.10
2022-08-17T01:58:47.326Z,10.00
2022-08-17T02:01:16.251Z,10.20
2022-08-17T02:03:56.135Z,9.80
2022-08-17T02:06:29.115Z,10.00
2022-08-17T02:09:03.093Z,10.30
2022-08-17T02:11:33.499Z,10.00
2022-08-17T02:14:04.059Z,10.40
2022-08-17T02:16:37.695Z,9.80
2022-08-17T02:19:16.339Z,10.50
2022-08-17T02:21:45.561Z,10.40
2022-08-17T02:24:15.699Z,10.60
2022-08-17T02:26:43.818Z,10.60
2022-08-17T02:29:12.489Z,9.70
2022-08-17T02:31:40.358Z,10.50
2022-08-17T02:34:08.332Z,10.10
2022-08-17T02:36:36.422Z,10.20
2022-08-17T02:39:05.447Z,9.80
2022-08-17T02:41:33.575Z,9.70
2022-08-17T02:44:01.442Z,10.70
2022-08-17T02:46:31.098Z,10.50
2022-08-17T02:48:59.193Z,10.20
2022-08-17T02:51:27.067Z,11.20
2022-08-17T02:54:05.322Z,10.60
2022-08-17T02:56:43.214Z,9.90
2022-08-17T02:59:10.884Z,10.70
2022-08-17T03:01:38.587Z,10.50
2022-08-17T03:04:06.489Z,10.50
2022-08-17T03:06:34.288Z,10.30
2022-08-17T03:09:01.883Z,10.30
2022-08-17T03:11:29.611Z,10.30
2022-08-17T03:13:58.601Z,9.90
2022-08-17T03:16:26.755Z,10.10
2022-08-17T03:18:55.201Z,10.60
2022-08-17T03:21:22.837Z,10.60
2022-08-17T03:23:54.616Z,10.90
2022-08-17T03:26:22.631Z,10.40
2022-08-17T03:28:50.705Z,10.50
2022-08-17T03:31:18.492Z,10.40
2022-08-17T03:33:46.243Z,9.50
2022-08-17T03:36:14.402Z,10.20
2022-08-17T03:38:42.257Z,10.00
2022-08-17T03:41:13.728Z,10.00
2022-08-17T03:43:42.197Z,9.70
2022-08-17T03:46:35.325Z,10.70
2022-08-17T03:49:24.113Z,10.00
2022-08-17T03:52:11.355Z,10.40
2022-08-17T03:54:58.187Z,10.00
2022-08-17T03:57:26.626Z,10.20
2022-08-17T03:59:54.567Z,9.90
2022-08-17T04:02:24.394Z,10.20
2022-08-17T04:04:52.605Z,10.40
2022-08-17T04:07:21.282Z,10.30
2022-08-17T04:09:49.096Z,10.20
2022-08-17T04:12:17.908Z,10.50
2022-08-17T04:14:53.619Z,10.10
2022-08-17T04:17:27.082Z,10.10
2022-08-17T04:19:55.366Z,10.20
2022-08-17T04:22:30.204Z,10.60
2022-08-17T04:25:09.865Z,9.80
2022-08-17T04:27:37.532Z,10.20
2022-08-17T04:30:07.414Z,9.90
2022-08-17T04:33:03.713Z,9.70
2022-08-17T04:35:40.195Z,9.40
2022-08-17T04:38:10.448Z,10.20
2022-08-17T04:40:57.145Z,10.40
2022-08-17T04:43:26.183Z,10.50
2022-08-17T04:45:59.043Z,10.20
2022-08-17T04:48:35.812Z,10.40
2022-08-17T04:51:07.254Z,9.60
2022-08-17T04:53:34.941Z,9.60
2022-08-17T04:56:03.269Z,9.60
2022-08-17T04:58:31.195Z,9.70
2022-08-17T05:00:58.831Z,10.20
2022-08-17T05:03:26.508Z,10.00
2022-08-17T05:05:54.366Z,9.90
2022-08-17T05:08:22.248Z,9.60
2022-08-17T05:10:50.275Z,9.10
2022-08-17T05:13:19.681Z,9.90
2022-08-17T05:15:48.274Z,9.90
2022-08-17T05:18:17.681Z,9.10
2022-08-17T05:20:45.386Z,9.40
2022-08-17T05:23:15.434Z,9.20
2022-08-17T05:25:47.451Z,9.40
2022-08-17T05:28:16.892Z,8.10
2022-08-17T05:30:48.584Z,9.00
2022-08-17T05:33:19.705Z,9.00
2022-08-17T05:35:49.040Z,9.20
2022-08-17T05:38:18.334Z,9.00
2022-08-17T05:40:46.489Z,8.90
2022-08-17T05:43:14.238Z,9.40
2022-08-17T05:45:55.532Z,8.80
2022-08-17T06:01:56.554Z,11.60
2022-08-17T06:04:33.464Z,12.70
2022-08-17T06:07:01.198Z,12.30
2022-08-17T06:09:33.947Z,11.40
2022-08-17T06:12:02.153Z,11.50
2022-08-17T06:14:35.173Z,11.10
2022-08-17T06:17:04.723Z,12.00
2022-08-17T06:19:54.691Z,10.70
2022-08-17T06:22:26.059Z,10.20
2022-08-17T06:24:58.257Z,9.30
2022-08-17T06:27:32.210Z,9.70
2022-08-17T06:30:04.261Z,9.30
2022-08-17T06:32:32.212Z,9.10
2022-08-17T06:35:01.136Z,9.40
2022-08-17T06:38:04.880Z,9.70
2022-08-17T06:40:48.528Z,10.40
2022-08-17T06:43:19.676Z,10.80
2022-08-17T06:45:54.400Z,10.90
2022-08-17T06:48:29.063Z,10.60
2022-08-17T06:51:20.233Z,10.70
2022-08-17T06:53:52.104Z,10.30
2022-08-17T06:56:27.103Z,11.10
2022-08-17T07:02:51.529Z,11.10
2022-08-17T07:07:29.817Z,11.30
2022-08-17T07:13:29.385Z,10.90
2022-08-17T07:22:57.383Z,9.70
2022-08-17T07:29:01.361Z,9.40
2022-08-17T07:39:59.502Z,9.30
2022-08-17T07:43:22.189Z,11.00
2022-08-17T07:55:57.728Z,12.00
2022-08-17T08:08:55.781Z,11.70
2022-08-17T08:11:48.003Z,12.70
2022-08-17T08:17:56.784Z,12.10
2022-08-17T08:24:47.988Z,12.20
2022-08-17T08:41:13.490Z,10.70
2022-08-17T08:44:59.719Z,11.20
2022-08-17T09:01:17.130Z,10.70
2022-08-17T09:17:32.587Z,8.60
2022-08-17T09:29:36.051Z,7.70
2022-08-17T09:32:32.819Z,7.50
2022-08-17T09:42:09.615Z,7.20
2022-08-17T09:48:29.526Z,6.40
2022-08-17T09:51:45.811Z,6.60
2022-08-17T10:02:13.605Z,6.10
2022-08-17T10:11:58.259Z,6.00
2022-08-17T10:18:30.392Z,6.10
2022-08-17T10:21:41.427Z,6.10
2022-08-17T10:25:22.236Z,5.70
2022-08-17T10:29:09.273Z,6.00
2022-08-17T10:35:32.035Z,5.70
2022-08-17T10:39:11.992Z,6.00
2022-08-17T10:42:30.375Z,6.10
2022-08-17T10:45:47.048Z,5.20
2022-08-17T10:55:18.733Z,5.10
2022-08-17T10:58:32.234Z,4.60
2022-08-17T11:08:43.377Z,5.20
2022-08-17T11:11:38.962Z,5.20
2022-08-17T11:30:13.261Z,4.90
2022-08-17T11:36:08.628Z,5.20
2022-08-17T11:46:04.140Z,4.90
2022-08-17T12:09:54.467Z,4.80
2022-08-17T12:13:12.075Z,4.80
2022-08-17T12:16:32.708Z,4.80
2022-08-17T12:19:49.212Z,5.10
2022-08-17T12:29:40.554Z,5.00
2022-08-17T12:32:50.343Z,4.80
2022-08-17T12:36:10.315Z,5.20
2022-08-17T12:39:14.287Z,5.00
2022-08-17T12:42:01.926Z,5.30
2022-08-17T12:44:50.558Z,5.10
2022-08-17T12:54:16.639Z,4.70
2022-08-17T13:00:38.761Z,4.70
2022-08-17T13:06:44.129Z,4.60
2022-08-17T13:12:47.697Z,5.00
2022-08-17T13:25:11.995Z,5.10
2022-08-17T13:31:52.630Z,5.00
2022-08-17T13:35:32.407Z,5.10
2022-08-17T13:40:26.942Z,5.40
2022-08-17T13:44:00.533Z,4.60
2022-08-17T13:47:14.312Z,4.70
2022-08-17T13:50:05.245Z,5.10
2022-08-17T13:53:05.101Z,5.20
2022-08-17T14:04:08.342Z,11.40
2022-08-17T14:06:53.982Z,4.80
2022-08-17T14:09:26.384Z,4.90
2022-08-17T14:11:53.952Z,5.10
2022-08-17T14:14:22.655Z,4.90
2022-08-17T14:16:49.767Z,4.90
2022-08-17T14:19:17.788Z,4.70
2022-08-17T14:21:46.132Z,5.70
2022-08-17T14:24:33.350Z,5.00
2022-08-17T14:27:01.432Z,4.90
2022-08-17T14:29:32.227Z,5.30
2022-08-17T14:32:02.675Z,4.80
2022-08-17T14:34:33.782Z,4.90
2022-08-17T14:37:01.484Z,5.00
2022-08-17T14:39:29.614Z,5.10
2022-08-17T14:41:58.630Z,4.90
2022-08-17T14:44:25.309Z,4.70
2022-08-17T14:49:20.415Z,4.80
2022-08-17T14:51:47.491Z,5.20
2022-08-17T14:54:34.102Z,5.10
2022-08-17T14:57:17.707Z,5.00
2022-08-17T14:59:54.456Z,4.70
2022-08-17T15:02:29.365Z,5.10
2022-08-17T15:05:04.752Z,5.00
2022-08-17T15:07:31.634Z,4.70
2022-08-17T15:10:00.955Z,4.90
2022-08-17T15:12:33.161Z,4.90
2022-08-17T15:15:04.835Z,4.80
2022-08-17T15:17:44.906Z,5.20
2022-08-17T15:20:17.092Z,4.60
2022-08-17T15:22:44.702Z,5.00
2022-08-17T15:25:12.577Z,5.10
2022-08-17T15:27:40.033Z,4.80
2022-08-17T15:30:09.555Z,4.80
2022-08-17T15:32:40.493Z,4.80
2022-08-17T15:35:08.338Z,5.00
2022-08-17T15:37:36.001Z,5.00
2022-08-17T15:40:08.665Z,4.90
2022-08-17T15:42:35.515Z,4.30
2022-08-17T15:47:28.796Z,5.00
2022-08-17T15:52:29.522Z,5.30
2022-08-17T15:55:00.597Z,4.60
2022-08-17T15:57:28.354Z,5.20
2022-08-17T15:59:59.051Z,5.00
2022-08-17T16:03:45.302Z,4.80
2022-08-17T16:05:24.692Z,5.00
2022-08-17T16:07:52.487Z,4.90
2022-08-17T16:10:21.062Z,17.90
2022-08-17T16:12:49.878Z,8.50
2022-08-17T16:15:18.654Z,7.50
2022-08-17T16:17:46.000Z,9.30
2022-08-17T16:20:20.317Z,11.30
2022-08-17T16:22:49.521Z,13.60
2022-08-17T16:25:22.885Z,14.10
2022-08-17T16:28:07.839Z,10.70
2022-08-17T16:30:35.445Z,7.10
2022-08-17T16:33:03.681Z,6.50
2022-08-17T16:35:31.367Z,6.30
2022-08-17T16:38:00.003Z,5.90
2022-08-17T17:06:52.719Z,8.20
2022-08-17T17:09:23.556Z,7.10
2022-08-17T17:11:55.517Z,7.40
2022-08-17T17:14:29.987Z,7.90
2022-08-17T17:17:12.153Z,8.10
2022-08-17T17:19:45.619Z,7.20
2022-08-17T17:22:13.527Z,7.50
2022-08-17T17:24:52.308Z,8.00
2022-08-17T17:27:30.900Z,7.70
2022-08-17T17:43:41.126Z,7.20
2022-08-17T17:46:28.700Z,6.80
2022-08-17T17:48:58.005Z,6.60
2022-08-17T17:51:55.002Z,6.30
2022-08-17T17:54:21.600Z,6.40
2022-08-17T17:56:49.563Z,6.60
2022-08-17T17:59:23.986Z,6.20
2022-08-17T18:02:02.578Z,6.20
2022-08-17T18:04:32.516Z,6.60
2022-08-17T18:07:13.822Z,6.10
2022-08-17T18:10:00.874Z,6.30
2022-08-17T18:12:48.884Z,6.90
2022-08-17T18:15:29.769Z,7.40
2022-08-17T18:18:21.143Z,12.40
2022-08-17T18:20:55.976Z,12.50
2022-08-17T18:23:28.344Z,12.90
2022-08-17T18:25:59.696Z,12.50
2022-08-17T18:28:28.283Z,12.50
2022-08-17T18:31:05.488Z,11.80
2022-08-17T18:33:34.255Z,15.10
2022-08-17T18:36:03.042Z,9.70
2022-08-17T18:38:34.053Z,8.90
2022-08-17T18:41:23.745Z,9.10
2022-08-17T18:44:03.465Z,9.30
2022-08-17T18:46:37.662Z,8.80
2022-08-17T18:49:10.943Z,8.80
2022-08-17T18:51:43.317Z,8.30
2022-08-17T18:54:21.061Z,8.30
2022-08-17T18:56:52.836Z,8.20
2022-08-17T18:59:27.400Z,8.90
2022-08-17T19:02:37.329Z,9.20
2022-08-17T19:05:13.746Z,8.70
2022-08-17T19:07:46.845Z,8.70
2022-08-17T19:10:22.650Z,8.60
2022-08-17T19:12:55.501Z,9.40
2022-08-17T19:15:35.021Z,9.10
2022-08-17T19:18:18.885Z,9.90
2022-08-17T19:20:55.367Z,10.30
2022-08-17T19:23:40.939Z,10.30
2022-08-17T19:26:54.631Z,10.20
2022-08-17T19:29:19.491Z,10.50
2022-08-17T19:31:53.905Z,9.90
2022-08-17T19:34:30.209Z,9.90
2022-08-17T19:37:28.339Z,10.10
2022-08-17T19:40:02.791Z,10.30
2022-08-17T19:42:31.389Z,9.90
2022-08-17T19:45:00.313Z,9.20
2022-08-17T19:47:53.370Z,9.50
2022-08-17T19:50:41.875Z,9.10
2022-08-17T19:53:19.067Z,9.10
2022-08-17T19:55:48.014Z,9.80
2022-08-17T19:58:17.967Z,9.00
2022-08-17T20:00:50.576Z,9.00
2022-08-17T20:03:49.301Z,9.50
2022-08-17T20:06:19.418Z,9.30
2022-08-17T20:08:59.365Z,9.10
2022-08-17T20:11:43.819Z,9.70
2022-08-17T20:14:21.318Z,9.70
2022-08-17T20:16:49.908Z,8.80
2022-08-17T20:19:22.583Z,9.20
2022-08-17T20:21:57.612Z,9.40
2022-08-17T20:24:26.375Z,10.20
2022-08-17T20:27:15.203Z,9.20
2022-08-17T20:30:02.594Z,10.20
2022-08-17T20:32:58.313Z,10.10
2022-08-17T20:35:26.577Z,10.60
2022-08-17T20:38:02.401Z,10.40
2022-08-17T20:40:51.906Z,9.90
2022-08-17T20:43:35.902Z,10.60
2022-08-17T20:46:23.251Z,10.00
2022-08-17T20:48:55.755Z,9.90
2022-08-17T20:51:24.030Z,9.30
2022-08-17T20:53:55.473Z,9.80
2022-08-17T20:56:42.077Z,10.30
2022-08-17T20:59:30.634Z,9.80
2022-08-17T21:02:18.590Z,9.70
2022-08-17T21:04:50.571Z,9.80
2022-08-17T21:07:41.098Z,10.30
2022-08-17T21:10:28.451Z,10.30
2022-08-17T21:13:08.427Z,9.90
2022-08-17T21:15:40.363Z,9.60
2022-08-17T21:18:40.715Z,9.90
2022-08-17T21:21:35.957Z,9.70
2022-08-17T21:24:21.891Z,10.10
2022-08-17T21:27:03.163Z,9.60
2022-08-17T21:29:33.915Z,10.60
2022-08-17T21:32:09.644Z,9.30
2022-08-17T21:34:41.723Z,9.80
2022-08-17T21:37:30.627Z,10.10
2022-08-17T21:40:00.736Z,9.70
2022-08-17T21:42:31.943Z,10.40
2022-08-17T21:45:01.764Z,10.60
2022-08-17T21:47:30.810Z,10.00
2022-08-17T21:50:16.368Z,10.40
2022-08-17T21:52:44.217Z,10.60
2022-08-17T21:55:19.833Z,10.80
2022-08-17T21:57:49.896Z,10.50
2022-08-17T22:00:38.386Z,10.60
2022-08-17T22:03:21.351Z,10.10
2022-08-17T22:05:51.732Z,10.50
2022-08-17T22:08:24.953Z,9.90
2022-08-17T22:11:00.072Z,10.50
2022-08-17T22:13:29.733Z,10.40
2022-08-17T22:16:29.301Z,10.60
2022-08-17T22:18:58.943Z,10.30
2022-08-17T22:21:27.402Z,10.30
2022-08-17T22:24:04.035Z,10.70
2022-08-17T22:26:52.061Z,10.10
2022-08-17T22:29:40.904Z,9.90
2022-08-17T22:32:09.449Z,10.50
2022-08-17T22:34:39.570Z,11.00
2022-08-17T22:37:21.366Z,10.10
2022-08-17T22:39:59.791Z,11.00
2022-08-17T22:42:29.400Z,10.60
2022-08-17T22:44:57.924Z,10.10
2022-08-17T22:47:31.842Z,10.80
2022-08-17T22:50:01.602Z,11.10
2022-08-17T22:53:00.461Z,11.30
2022-08-17T22:55:49.219Z,11.00
2022-08-17T22:58:37.873Z,10.90
2022-08-17T23:01:24.903Z,11.40
2022-08-17T23:03:54.874Z,11.70
2022-08-17T23:06:24.325Z,10.60
2022-08-17T23:08:55.159Z,10.20
2022-08-17T23:11:36.764Z,10.70
2022-08-17T23:14:16.925Z,9.90
2022-08-17T23:16:44.521Z,10.30
2022-08-17T23:19:13.865Z,10.60
2022-08-17T23:21:42.465Z,10.70
2022-08-17T23:24:11.864Z,11.20
2022-08-17T23:26:41.366Z,10.60
2022-08-17T23:29:09.532Z,11.20
2022-08-17T23:31:38.830Z,10.70
2022-08-17T23:34:09.227Z,10.50
2022-08-17T23:36:38.044Z,10.80
2022-08-17T23:39:06.361Z,10.70
2022-08-17T23:41:36.346Z,11.10
2022-08-17T23:44:04.841Z,11.40
2022-08-17T23:46:32.884Z,11.30
2022-08-17T23:49:00.859Z,12.00
2022-08-17T23:51:31.106Z,11.50
2022-08-17T23:54:07.706Z,11.30
2022-08-17T23:56:42.336Z,11.30
2022-08-17T23:59:10.244Z,11.40
